Time;durP1;ratioP1;P1;durP2;ratioP2;P2;SDS_P1;SDS_P2;PMS_P1;PMS_P2;Temp;Humidity;BMP_temperature;BMP_pressure;BME280_temperature;BME280_humidity;BME280_pressure;Samples;Min_cycle;Max_cycle;Signal;HPM_P1;HPM_P2
2022/10/19 00:01:26;;;;;;;0.50;0.40;;;8.50;99.90;;;;;;5095007;28;20186;-76
2022/10/19 00:03:54;;;;;;;0.50;0.40;;;8.50;99.90;;;;;;5094685;28;20546;-74
2022/10/19 00:06:24;;;;;;;0.50;0.40;;;8.40;99.90;;;;;;5094774;28;20569;-76
2022/10/19 00:08:52;;;;;;;0.50;0.40;;;8.50;99.90;;;;;;5094922;28;20194;-75
2022/10/19 00:11:19;;;;;;;0.50;0.50;;;8.50;99.90;;;;;;5082814;28;20246;-76
2022/10/19 00:13:46;;;;;;;0.60;0.43;;;8.40;99.90;;;;;;5073977;28;20186;-75
2022/10/19 00:16:15;;;;;;;0.50;0.40;;;8.50;99.90;;;;;;5074266;28;20213;-75
2022/10/19 00:18:45;;;;;;;0.50;0.40;;;8.40;99.90;;;;;;5074155;28;20193;-74
2022/10/19 00:21:14;;;;;;;0.50;0.40;;;8.40;99.90;;;;;;5074201;28;20221;-76
2022/10/19 00:23:41;;;;;;;0.50;0.40;;;8.40;99.90;;;;;;5074072;28;20289;-76
2022/10/19 00:26:08;;;;;;;0.50;0.40;;;8.50;99.90;;;;;;5074540;28;20227;-76
2022/10/19 00:28:35;;;;;;;0.50;0.40;;;8.40;99.90;;;;;;5074238;28;20275;-74
2022/10/19 00:31:03;;;;;;;0.50;0.40;;;8.40;99.90;;;;;;5074155;28;20201;-76
2022/10/19 00:33:30;;;;;;;0.50;0.40;;;8.40;99.90;;;;;;5073611;28;20197;-76
2022/10/19 00:35:58;;;;;;;0.60;0.40;;;8.30;99.90;;;;;;5073665;28;20227;-75
2022/10/19 00:38:26;;;;;;;0.50;0.40;;;8.30;99.90;;;;;;5074251;28;20284;-76
2022/10/19 00:40:53;;;;;;;0.50;0.40;;;8.30;99.90;;;;;;5072760;28;20197;-75
2022/10/19 00:43:22;;;;;;;0.50;0.40;;;8.30;99.90;;;;;;5073917;28;20277;-75
2022/10/19 00:45:49;;;;;;;0.50;0.40;;;8.30;99.90;;;;;;5073427;28;20247;-76
2022/10/19 00:48:21;;;;;;;0.50;0.40;;;8.30;99.90;;;;;;5073759;28;20199;-76
2022/10/19 00:50:49;;;;;;;0.50;0.40;;;8.20;99.90;;;;;;5072759;28;20196;-75
2022/10/19 00:53:18;;;;;;;0.50;0.40;;;8.20;99.90;;;;;;5073809;28;20200;-76
2022/10/19 00:55:46;;;;;;;0.50;0.40;;;8.20;99.90;;;;;;5073100;28;20215;-75
2022/10/19 00:58:13;;;;;;;0.50;0.40;;;8.20;99.90;;;;;;5073144;28;20193;-76
2022/10/19 01:00:40;;;;;;;0.50;0.40;;;8.10;99.90;;;;;;5073429;28;20197;-76
2022/10/19 01:03:09;;;;;;;0.50;0.40;;;8.10;99.90;;;;;;5073555;28;20196;-76
2022/10/19 01:05:36;;;;;;;0.50;0.40;;;8.10;99.90;;;;;;5073079;28;20223;-76
2022/10/19 01:08:04;;;;;;;0.50;0.40;;;8.10;99.90;;;;;;5073218;28;20217;-75
2022/10/19 01:10:42;;;;;;;0.50;0.40;;;8.10;99.90;;;;;;5073131;28;20276;-76
2022/10/19 01:13:21;;;;;;;1.80;1.70;;;8.10;99.90;;;;;;5073650;28;20199;-74
2022/10/19 01:15:57;;;;;;;0.50;0.40;;;8.10;99.90;;;;;;5072935;28;20227;-75
2022/10/19 01:18:32;;;;;;;0.50;0.50;;;8.10;99.90;;;;;;5073624;28;20182;-75
2022/10/19 01:21:20;;;;;;;0.50;0.40;;;8.20;99.90;;;;;;5072944;28;20180;-75
2022/10/19 01:24:09;;;;;;;0.50;0.40;;;8.10;99.90;;;;;;5073397;28;20206;-76
2022/10/19 01:26:57;;;;;;;0.70;0.70;;;8.00;99.90;;;;;;5072632;28;20224;-76
2022/10/19 01:29:37;;;;;;;0.50;0.40;;;8.00;99.90;;;;;;5072969;28;20273;-75
2022/10/19 01:32:09;;;;;;;0.50;0.40;;;8.00;99.90;;;;;;5072671;28;20185;-76
2022/10/19 01:34:44;;;;;;;0.50;0.40;;;7.90;99.90;;;;;;5072820;28;20174;-75
2022/10/19 01:37:18;;;;;;;0.50;0.40;;;7.90;99.90;;;;;;5072798;28;20196;-76
2022/10/19 01:39:52;;;;;;;0.50;0.40;;;7.90;99.90;;;;;;5073002;28;20181;-75
2022/10/19 01:42:28;;;;;;;0.50;0.40;;;7.80;99.90;;;;;;5072536;28;20218;-76
2022/10/19 01:45:00;;;;;;;5.10;4.85;;;7.80;99.90;;;;;;5072989;28;20279;-75
2022/10/19 01:47:34;;;;;;;0.50;0.40;;;7.80;99.90;;;;;;5072837;28;20197;-76
2022/10/19 01:50:05;;;;;;;0.50;0.40;;;7.90;99.90;;;;;;5072099;28;20914;-76
2022/10/19 01:52:33;;;;;;;0.50;0.40;;;7.80;99.90;;;;;;5071809;28;20184;-75
2022/10/19 01:55:03;;;;;;;0.50;0.40;;;7.70;99.90;;;;;;5072094;28;20726;-76
2022/10/19 01:57:33;;;;;;;0.50;0.40;;;7.70;99.90;;;;;;5072476;28;20193;-76
2022/10/19 02:00:06;;;;;;;0.50;0.40;;;7.60;99.90;;;;;;5072763;28;20177;-75
2022/10/19 02:02:37;;;;;;;0.50;0.40;;;7.60;99.90;;;;;;5072416;28;20658;-76
2022/10/19 02:05:06;;;;;;;0.50;0.40;;;7.60;99.90;;;;;;5071896;28;20216;-75
2022/10/19 02:07:33;;;;;;;0.50;0.40;;;7.60;99.90;;;;;;5071845;28;20218;-75
2022/10/19 02:10:00;;;;;;;0.50;0.40;;;7.50;99.90;;;;;;5072482;28;20285;-75
2022/10/19 02:12:31;;;;;;;0.50;0.40;;;7.50;99.90;;;;;;5072168;28;20195;-75
2022/10/19 02:15:02;;;;;;;0.50;0.40;;;7.50;99.90;;;;;;5071701;28;20216;-75
2022/10/19 02:17:35;;;;;;;0.50;0.40;;;7.50;99.90;;;;;;5071931;28;20174;-76
2022/10/19 02:20:02;;;;;;;0.50;0.40;;;7.40;99.90;;;;;;5072508;28;20268;-75
2022/10/19 02:22:30;;;;;;;0.50;0.40;;;7.40;99.90;;;;;;5071810;28;20200;-76
2022/10/19 02:24:56;;;;;;;0.50;0.40;;;7.40;99.90;;;;;;5071780;28;20193;-76
2022/10/19 02:27:23;;;;;;;0.50;0.40;;;7.40;99.90;;;;;;5071238;28;20200;-76
2022/10/19 02:29:51;;;;;;;0.50;0.40;;;7.40;99.90;;;;;;5072220;28;20192;-75
2022/10/19 02:32:18;;;;;;;0.50;0.40;;;7.40;99.90;;;;;;5071478;28;20194;-76
2022/10/19 02:34:46;;;;;;;0.50;0.40;;;7.40;99.90;;;;;;5071489;28;20292;-75
2022/10/19 02:37:13;;;;;;;0.50;0.40;;;7.40;99.90;;;;;;5071934;28;20193;-75
2022/10/19 02:39:40;;;;;;;0.50;0.40;;;7.40;99.90;;;;;;5071652;28;20273;-75
2022/10/19 02:42:11;;;;;;;0.50;0.40;;;7.40;99.90;;;;;;5071704;28;20195;-75
2022/10/19 02:44:42;;;;;;;0.50;0.40;;;7.40;99.90;;;;;;5071428;28;20197;-75
2022/10/19 02:47:15;;;;;;;0.50;0.40;;;7.40;99.90;;;;;;5071840;28;20203;-76
2022/10/19 02:49:43;;;;;;;0.50;0.40;;;7.40;99.90;;;;;;5071452;28;20185;-75
2022/10/19 02:52:13;;;;;;;0.50;0.40;;;7.40;99.90;;;;;;5071541;28;20246;-75
2022/10/19 02:54:41;;;;;;;0.82;0.80;;;7.40;99.90;;;;;;5071034;28;20197;-75
2022/10/19 02:57:16;;;;;;;0.50;0.40;;;7.40;99.90;;;;;;5071306;28;20189;-76
2022/10/19 02:59:43;;;;;;;0.50;0.40;;;7.40;99.90;;;;;;5071491;28;20210;-76
2022/10/19 03:02:10;;;;;;;0.50;0.40;;;7.40;99.90;;;;;;5071437;28;20816;-75
2022/10/19 03:04:40;;;;;;;0.50;0.40;;;7.30;99.90;;;;;;5070342;28;20192;-76
2022/10/19 03:07:07;;;;;;;0.50;0.50;;;7.30;99.90;;;;;;5070955;28;20290;-75
2022/10/19 03:09:35;;;;;;;0.50;0.40;;;7.30;99.90;;;;;;5071494;28;20279;-75
2022/10/19 03:12:02;;;;;;;0.50;0.40;;;7.30;99.90;;;;;;5071451;28;20199;-76
2022/10/19 03:14:29;;;;;;;0.50;0.40;;;7.30;99.90;;;;;;5070738;28;20188;-76
2022/10/19 03:16:55;;;;;;;0.50;0.40;;;7.20;99.90;;;;;;5071180;28;20235;-76
2022/10/19 03:19:22;;;;;;;0.50;0.40;;;7.20;99.90;;;;;;5071288;28;20520;-76
2022/10/19 03:21:49;;;;;;;0.50;0.40;;;7.20;99.90;;;;;;5071283;28;20189;-76
2022/10/19 03:24:16;;;;;;;0.50;0.43;;;7.20;99.90;;;;;;5070891;28;20558;-76
2022/10/19 03:26:44;;;;;;;0.50;0.40;;;7.20;99.90;;;;;;5070927;28;20702;-76
2022/10/19 03:29:11;;;;;;;0.50;0.45;;;7.10;99.90;;;;;;5071000;28;20292;-76
2022/10/19 03:31:38;;;;;;;0.50;0.40;;;7.10;99.90;;;;;;5070985;28;20204;-76
2022/10/19 03:34:05;;;;;;;0.70;0.70;;;7.20;99.90;;;;;;5071186;28;20558;-75
2022/10/19 03:36:33;;;;;;;0.50;0.40;;;7.30;99.90;;;;;;5071258;28;20223;-76
2022/10/19 03:39:02;;;;;;;0.50;0.40;;;7.40;99.90;;;;;;5071022;28;20768;-76
2022/10/19 03:41:31;;;;;;;0.50;0.40;;;7.40;99.90;;;;;;5070773;28;20223;-76
2022/10/19 03:44:00;;;;;;;1.23;1.13;;;7.40;99.90;;;;;;5070708;28;20855;-76
2022/10/19 03:46:27;;;;;;;0.50;0.40;;;7.40;99.90;;;;;;5070912;28;20214;-76
2022/10/19 03:48:54;;;;;;;0.50;0.40;;;7.30;99.90;;;;;;5070887;28;20220;-76
2022/10/19 03:51:23;;;;;;;0.50;0.40;;;7.30;99.90;;;;;;5070711;28;20278;-77
2022/10/19 03:53:53;;;;;;;0.50;0.40;;;7.30;99.90;;;;;;5070914;28;20193;-74
2022/10/19 03:56:22;;;;;;;0.50;0.40;;;7.40;99.90;;;;;;5070995;28;20219;-75
2022/10/19 03:58:50;;;;;;;0.50;0.40;;;7.40;99.90;;;;;;5070737;28;20199;-75
2022/10/19 04:01:20;;;;;;;0.50;0.40;;;7.30;99.90;;;;;;5070984;28;20195;-76
2022/10/19 04:03:47;;;;;;;0.50;0.40;;;7.30;99.90;;;;;;5071304;28;20646;-75
2022/10/19 04:06:16;;;;;;;0.50;0.40;;;7.30;99.90;;;;;;5076261;28;20331;-76
2022/10/19 04:08:43;;;;;;;0.50;0.40;;;7.20;99.90;;;;;;5091083;28;20213;-76
2022/10/19 04:11:14;;;;;;;0.50;0.40;;;7.20;99.90;;;;;;5090765;28;20654;-77
2022/10/19 04:13:41;;;;;;;1.02;0.93;;;7.20;99.90;;;;;;5090977;28;20287;-76
2022/10/19 04:16:10;;;;;;;1.00;0.75;;;7.10;99.90;;;;;;5087661;28;20718;-77
2022/10/19 04:18:38;;;;;;;0.50;0.40;;;7.10;99.90;;;;;;5083516;28;20188;-76
2022/10/19 04:21:06;;;;;;;0.50;0.40;;;7.10;99.90;;;;;;5094171;28;20283;-76
2022/10/19 04:23:35;;;;;;;0.50;0.40;;;7.10;99.90;;;;;;5094862;28;20591;-75
2022/10/19 04:26:05;;;;;;;0.50;0.40;;;7.10;99.90;;;;;;5093817;28;20226;-76
2022/10/19 04:28:32;;;;;;;0.50;0.40;;;7.10;99.90;;;;;;5094526;28;20630;-75
2022/10/19 04:31:02;;;;;;;0.50;0.40;;;7.10;99.90;;;;;;5094210;28;20672;-76
2022/10/19 04:33:29;;;;;;;0.60;0.50;;;7.00;99.90;;;;;;5094019;28;20189;-76
2022/10/19 04:35:59;;;;;;;0.50;0.40;;;7.00;99.90;;;;;;5094115;28;20242;-77
2022/10/19 04:38:26;;;;;;;0.50;0.40;;;7.10;99.90;;;;;;5094109;28;20180;-76
2022/10/19 04:40:53;;;;;;;0.50;0.40;;;7.10;99.90;;;;;;5094379;28;20218;-76
2022/10/19 04:43:20;;;;;;;0.50;0.40;;;7.10;99.90;;;;;;5094215;28;20223;-76
2022/10/19 04:45:47;;;;;;;0.50;0.40;;;7.10;99.90;;;;;;5093023;28;20743;-76
2022/10/19 04:48:14;;;;;;;0.50;0.40;;;7.10;99.90;;;;;;5094142;28;20211;-76
2022/10/19 04:50:40;;;;;;;0.50;0.50;;;7.20;99.90;;;;;;5093755;28;20653;-76
2022/10/19 04:53:09;;;;;;;1.63;1.52;;;7.20;99.90;;;;;;5094246;28;20283;-76
2022/10/19 04:55:40;;;;;;;0.60;0.60;;;7.20;99.90;;;;;;5093206;28;20252;-77
2022/10/19 04:58:07;;;;;;;0.50;0.47;;;7.20;99.90;;;;;;5093383;28;20187;-75
2022/10/19 05:00:34;;;;;;;0.50;0.40;;;7.20;99.90;;;;;;5094161;28;20713;-76
2022/10/19 05:03:01;;;;;;;0.50;0.50;;;7.20;99.90;;;;;;5094148;28;20283;-76
2022/10/19 05:05:28;;;;;;;0.55;0.55;;;7.20;99.90;;;;;;5093569;28;20302;-76
2022/10/19 05:07:54;;;;;;;0.50;0.40;;;7.20;99.90;;;;;;5093579;28;20299;-76
2022/10/19 05:10:23;;;;;;;0.50;0.40;;;7.20;99.90;;;;;;5093940;28;20194;-75
2022/10/19 05:12:49;;;;;;;1.42;1.35;;;7.20;99.90;;;;;;5093213;28;20284;-76
2022/10/19 05:15:17;;;;;;;0.50;0.40;;;7.20;99.90;;;;;;5092977;28;20301;-76
2022/10/19 05:17:43;;;;;;;0.50;0.40;;;7.20;99.90;;;;;;5093722;28;20276;-72
2022/10/19 05:20:11;;;;;;;0.50;0.40;;;7.20;99.90;;;;;;5094057;28;20625;-76
2022/10/19 05:22:38;;;;;;;1.17;1.17;;;7.20;99.90;;;;;;5072676;28;20196;-76
2022/10/19 05:25:06;;;;;;;0.80;0.80;;;7.20;99.90;;;;;;5072600;28;20247;-76
2022/10/19 05:27:34;;;;;;;0.50;0.40;;;7.20;99.90;;;;;;5072160;28;20567;-76
2022/10/19 05:30:01;;;;;;;0.50;0.40;;;7.20;99.90;;;;;;5073247;28;20650;-76
2022/10/19 05:32:28;;;;;;;0.50;0.50;;;7.20;99.90;;;;;;5073311;28;20200;-75
2022/10/19 05:34:55;;;;;;;0.50;0.40;;;7.20;99.90;;;;;;5072808;28;20196;-75
2022/10/19 05:37:22;;;;;;;0.50;0.50;;;7.20;99.90;;;;;;5072044;28;20270;-76
2022/10/19 05:39:48;;;;;;;0.50;0.40;;;7.20;99.90;;;;;;5072562;28;20193;-74
2022/10/19 05:42:15;;;;;;;2.35;2.15;;;7.30;99.90;;;;;;5072405;28;20203;-75
2022/10/19 05:44:43;;;;;;;0.50;0.40;;;7.30;99.90;;;;;;5072381;28;20190;-76
2022/10/19 05:47:10;;;;;;;0.50;0.40;;;7.30;99.90;;;;;;5072928;28;20206;-76
2022/10/19 05:49:37;;;;;;;0.50;0.40;;;7.30;99.90;;;;;;5072359;28;20216;-76
2022/10/19 05:52:04;;;;;;;0.50;0.40;;;7.30;99.90;;;;;;5071873;28;20288;-76
2022/10/19 05:54:31;;;;;;;0.50;0.40;;;7.30;99.90;;;;;;5073636;28;20200;-77
2022/10/19 05:56:58;;;;;;;0.50;0.40;;;7.30;99.90;;;;;;5082853;28;20346;-77
2022/10/19 05:59:25;;;;;;;0.50;0.40;;;7.30;99.90;;;;;;5072315;28;20192;-76
2022/10/19 06:01:53;;;;;;;0.50;0.40;;;7.30;99.90;;;;;;5071897;28;20200;-75
2022/10/19 06:04:20;;;;;;;0.50;0.40;;;7.30;99.90;;;;;;5071975;28;20192;-76
2022/10/19 06:06:46;;;;;;;0.50;0.40;;;7.30;99.90;;;;;;5076294;28;20686;-76
2022/10/19 06:09:13;;;;;;;0.50;0.40;;;7.30;99.90;;;;;;5091443;28;20208;-76
2022/10/19 06:11:41;;;;;;;0.50;0.40;;;7.30;99.90;;;;;;5092361;28;20195;-77
2022/10/19 06:14:12;;;;;;;0.60;0.50;;;7.30;99.90;;;;;;5091919;28;20192;-76
2022/10/19 06:16:39;;;;;;;0.50;0.40;;;7.30;99.90;;;;;;5091958;28;20217;-77
2022/10/19 06:19:07;;;;;;;0.50;0.50;;;7.30;99.90;;;;;;5092018;28;20276;-75
2022/10/19 06:21:34;;;;;;;0.50;0.40;;;7.30;99.90;;;;;;5092137;28;20189;-76
2022/10/19 06:24:03;;;;;;;1.48;1.38;;;7.30;99.90;;;;;;5091822;28;20195;-75
2022/10/19 06:26:33;;;;;;;0.50;0.40;;;7.30;99.90;;;;;;5092753;28;20249;-75
2022/10/19 06:29:01;;;;;;;0.50;0.40;;;7.40;99.90;;;;;;5091766;28;20239;-75
2022/10/19 06:31:28;;;;;;;0.50;0.50;;;7.30;99.90;;;;;;5091938;28;20357;-75
2022/10/19 06:33:56;;;;;;;0.50;0.40;;;7.40;99.90;;;;;;5091571;28;20739;-75
2022/10/19 06:36:26;;;;;;;0.50;0.40;;;7.30;99.90;;;;;;5091840;28;20639;-75
2022/10/19 06:38:53;;;;;;;0.50;0.50;;;7.40;99.90;;;;;;5091169;28;20268;-75
2022/10/19 06:41:20;;;;;;;0.50;0.40;;;7.40;99.90;;;;;;5091720;28;20291;-75
2022/10/19 06:43:50;;;;;;;1.40;1.40;;;7.50;99.90;;;;;;5091445;28;20601;-76
2022/10/19 06:46:19;;;;;;;0.50;0.40;;;7.50;99.90;;;;;;5091525;28;20310;-75
2022/10/19 06:48:51;;;;;;;0.50;0.40;;;7.60;99.90;;;;;;5091452;28;20230;-73
2022/10/19 06:51:18;;;;;;;0.50;0.50;;;7.60;99.90;;;;;;5091451;28;20287;-75
2022/10/19 06:53:46;;;;;;;0.50;0.40;;;7.60;99.90;;;;;;5091623;28;20188;-74
2022/10/19 06:56:13;;;;;;;2.58;2.00;;;7.70;99.90;;;;;;5090997;28;20704;-75
2022/10/19 06:58:40;;;;;;;0.50;0.45;;;7.70;99.90;;;;;;5091582;28;20188;-76
2022/10/19 07:01:08;;;;;;;0.50;0.40;;;7.70;99.90;;;;;;5091634;28;20192;-74
2022/10/19 07:03:36;;;;;;;2.08;1.98;;;7.70;99.90;;;;;;5091371;28;20287;-74
2022/10/19 07:06:05;;;;;;;2.13;2.03;;;7.80;99.90;;;;;;5091051;28;20216;-76
2022/10/19 07:08:33;;;;;;;0.70;0.50;;;7.80;99.90;;;;;;5091142;28;20208;-75
2022/10/19 07:11:03;;;;;;;0.50;0.40;;;7.90;99.90;;;;;;5092614;28;20255;-75
2022/10/19 07:13:30;;;;;;;0.50;0.50;;;8.00;99.90;;;;;;5092154;28;20180;-74
2022/10/19 07:15:58;;;;;;;3.20;1.67;;;8.10;99.90;;;;;;5091549;28;20222;-74
2022/10/19 07:18:25;;;;;;;0.50;0.50;;;8.30;99.90;;;;;;5091392;28;20215;-75
2022/10/19 07:20:56;;;;;;;0.80;0.60;;;8.60;99.90;;;;;;5090992;28;20240;-75
2022/10/19 07:23:24;;;;;;;0.80;0.60;;;8.70;99.90;;;;;;5091481;28;20193;-75
2022/10/19 07:25:52;;;;;;;0.50;0.40;;;8.80;99.90;;;;;;5090499;28;20231;-75
2022/10/19 07:28:21;;;;;;;0.50;0.40;;;9.10;99.90;;;;;;5091060;28;20286;-75
2022/10/19 07:30:48;;;;;;;1.20;1.20;;;9.30;99.90;;;;;;5091179;28;20201;-74
2022/10/19 07:33:15;;;;;;;0.68;0.68;;;9.50;99.90;;;;;;5091065;28;20280;-75
2022/10/19 07:35:41;;;;;;;0.80;0.80;;;9.80;99.90;;;;;;5090827;28;20216;-74
2022/10/19 07:38:09;;;;;;;1.45;0.70;;;10.10;99.90;;;;;;5091236;28;20194;-75
2022/10/19 07:40:36;;;;;;;1.63;1.63;;;10.50;99.90;;;;;;5091346;28;20200;-75
2022/10/19 07:43:03;;;;;;;0.90;0.80;;;11.00;99.90;;;;;;5090786;28;20284;-76
2022/10/19 07:45:32;;;;;;;1.33;1.23;;;11.70;99.90;;;;;;5090641;28;20210;-75
2022/10/19 07:47:59;;;;;;;0.70;0.60;;;13.10;99.90;;;;;;5090306;28;20435;-74
2022/10/19 07:50:27;;;;;;;0.50;0.40;;;14.30;99.90;;;;;;5093301;28;20643;-75
2022/10/19 07:52:54;;;;;;;0.50;0.40;;;15.20;99.90;;;;;;5095134;28;20442;-75
2022/10/19 07:55:21;;;;;;;0.50;0.37;;;16.20;99.90;;;;;;5094429;28;20451;-75
2022/10/19 07:57:48;;;;;;;0.50;0.50;;;17.20;99.90;;;;;;5094991;28;20439;-74
2022/10/19 08:00:15;;;;;;;0.67;0.67;;;17.80;99.90;;;;;;5094620;28;20431;-75
2022/10/19 08:02:44;;;;;;;2.93;2.63;;;18.50;99.90;;;;;;5095143;28;20800;-75
2022/10/19 08:05:11;;;;;;;0.50;0.37;;;18.90;99.90;;;;;;5094176;28;20457;-75
2022/10/19 08:07:38;;;;;;;1.20;1.07;;;19.60;99.90;;;;;;5094645;28;20530;-75
2022/10/19 08:10:05;;;;;;;0.50;0.40;;;20.20;99.90;;;;;;5094360;28;20477;-74
2022/10/19 08:12:37;;;;;;;0.50;0.30;;;20.60;99.90;;;;;;5094716;28;20526;-75
2022/10/19 08:15:05;;;;;;;0.50;0.40;;;21.70;99.90;;;;;;5094188;28;20459;-75
2022/10/19 08:17:35;;;;;;;0.60;0.40;;;23.00;98.90;;;;;;5094761;28;20431;-75
2022/10/19 08:20:04;;;;;;;0.50;0.30;;;24.20;95.30;;;;;;5093987;28;20466;-75
2022/10/19 08:22:31;;;;;;;0.77;0.67;;;25.40;90.70;;;;;;5094673;28;20442;-75
2022/10/19 08:24:57;;;;;;;2.80;1.10;;;25.60;81.30;;;;;;5093760;28;20828;-74
2022/10/19 08:27:24;;;;;;;0.50;0.40;;;25.90;79.20;;;;;;5093929;28;20430;-75
2022/10/19 08:29:51;;;;;;;0.50;0.30;;;26.60;74.50;;;;;;5093408;28;21182;-74
2022/10/19 08:32:18;;;;;;;3.90;0.70;;;26.70;72.70;;;;;;5094179;28;20439;-75
2022/10/19 08:34:45;;;;;;;0.50;0.30;;;27.00;71.80;;;;;;5093711;28;20435;-75
2022/10/19 08:37:13;;;;;;;0.50;0.30;;;27.50;71.30;;;;;;5094213;28;20948;-75
2022/10/19 08:39:40;;;;;;;0.50;0.30;;;28.00;68.20;;;;;;5093757;28;20436;-76
2022/10/19 08:42:14;;;;;;;0.83;0.80;;;28.10;66.30;;;;;;5093974;28;20449;-75
2022/10/19 08:45:24;;;;;;;0.50;0.30;;;28.20;63.60;;;;;;5093139;28;20502;-75
2022/10/19 08:48:06;;;;;;;0.50;0.40;;;27.90;64.00;;;;;;5073254;28;20453;-75
2022/10/19 08:50:38;;;;;;;2.20;1.43;;;27.40;64.10;;;;;;5093122;28;20462;-75
2022/10/19 08:53:08;;;;;;;0.50;0.30;;;27.00;65.50;;;;;;5093192;28;20535;-75
2022/10/19 08:55:48;;;;;;;1.83;1.50;;;26.90;65.90;;;;;;5092896;28;20459;-75
2022/10/19 08:58:28;;;;;;;0.50;0.40;;;26.60;66.00;;;;;;5093961;28;20416;-76
2022/10/19 09:01:00;;;;;;;0.87;0.87;;;25.70;66.10;;;;;;5091908;28;20443;-75
2022/10/19 09:03:37;;;;;;;1.23;0.60;;;25.20;67.30;;;;;;5093763;28;20430;-75
2022/10/19 09:06:18;;;;;;;0.50;0.30;;;24.80;69.00;;;;;;5092895;28;20462;-75
2022/10/19 09:08:47;;;;;;;0.50;0.40;;;24.40;71.10;;;;;;5093368;28;20503;-75
2022/10/19 09:11:19;;;;;;;1.10;0.60;;;24.70;70.90;;;;;;5093184;28;20439;-75
2022/10/19 09:13:48;;;;;;;0.50;0.40;;;24.50;70.50;;;;;;5092901;28;20988;-75
2022/10/19 09:16:18;;;;;;;0.50;0.30;;;24.50;71.60;;;;;;5093170;28;20455;-75
2022/10/19 09:18:46;;;;;;;3.27;3.07;;;24.10;72.40;;;;;;5093401;28;20438;-75
2022/10/19 09:21:17;;;;;;;0.50;0.40;;;23.00;73.70;;;;;;5092434;28;20895;-75
2022/10/19 09:23:51;;;;;;;3.97;0.97;;;22.30;77.10;;;;;;5093133;28;20540;-74
2022/10/19 09:26:19;;;;;;;0.50;0.30;;;21.30;78.60;;;;;;5092656;28;20471;-75
2022/10/19 09:28:52;;;;;;;0.50;0.30;;;20.00;84.80;;;;;;5092974;28;21003;-74
2022/10/19 09:31:25;;;;;;;2.57;0.50;;;19.10;92.10;;;;;;5092425;28;20440;-74
2022/10/19 09:33:59;;;;;;;0.50;0.40;;;18.50;99.90;;;;;;5092892;28;20423;-74
2022/10/19 09:36:36;;;;;;;0.80;0.80;;;17.80;99.90;;;;;;5092543;28;20981;-75
2022/10/19 09:39:04;;;;;;;0.50;0.40;;;17.30;99.90;;;;;;5092730;28;20435;-75
2022/10/19 09:41:31;;;;;;;0.50;0.40;;;17.00;99.90;;;;;;5092450;28;20447;-75
2022/10/19 09:43:59;;;;;;;0.50;0.40;;;16.80;99.90;;;;;;5092305;28;20452;-74
2022/10/19 09:46:50;;;;;;;0.60;0.60;;;16.40;99.90;;;;;;5092786;28;20546;-74
2022/10/19 09:49:18;;;;;;;0.50;0.40;;;16.10;99.90;;;;;;5092433;28;20516;-75
2022/10/19 09:51:50;;;;;;;0.50;0.40;;;15.80;99.90;;;;;;5091941;28;20445;-74
2022/10/19 09:54:34;;;;;;;0.50;0.40;;;15.70;99.90;;;;;;5092066;28;20423;-76
2022/10/19 09:57:01;;;;;;;1.00;0.50;;;15.70;99.90;;;;;;5092156;28;20491;-76
2022/10/19 09:59:31;;;;;;;0.50;0.40;;;15.40;99.90;;;;;;5092783;28;20466;-77
2022/10/19 10:02:14;;;;;;;0.50;0.40;;;15.30;99.90;;;;;;5092314;28;20435;-76
2022/10/19 10:04:41;;;;;;;0.50;0.40;;;15.40;99.90;;;;;;5091554;28;20425;-76
2022/10/19 10:07:16;;;;;;;1.10;0.70;;;15.60;99.90;;;;;;5092776;28;20447;-76
2022/10/19 10:09:45;;;;;;;0.50;0.40;;;15.50;99.90;;;;;;5092329;28;20471;-76
2022/10/19 10:12:14;;;;;;;0.60;0.50;;;15.60;99.90;;;;;;5091576;28;20443;-77
2022/10/19 10:14:43;;;;;;;0.50;0.40;;;15.80;99.90;;;;;;5091591;28;20863;-76
2022/10/19 10:17:16;;;;;;;0.50;0.40;;;16.00;99.90;;;;;;5092270;28;20442;-77
2022/10/19 10:19:51;;;;;;;0.50;0.40;;;16.40;99.90;;;;;;5091967;28;20789;-76
2022/10/19 10:22:25;;;;;;;0.50;0.40;;;16.50;99.90;;;;;;5092186;28;20426;-77
2022/10/19 10:24:55;;;;;;;0.50;0.40;;;16.50;99.90;;;;;;5090975;28;20439;-76
2022/10/19 10:27:31;;;;;;;0.50;0.40;;;16.50;99.90;;;;;;5092147;28;20514;-77
2022/10/19 10:29:58;;;;;;;0.50;0.40;;;16.50;99.90;;;;;;5092191;28;20463;-74
2022/10/19 10:32:27;;;;;;;0.50;0.40;;;16.50;99.90;;;;;;5091808;28;20442;-76
2022/10/19 10:35:01;;;;;;;0.50;0.37;;;16.40;99.90;;;;;;5091556;28;20529;-76
2022/10/19 10:37:33;;;;;;;0.50;0.40;;;16.40;99.90;;;;;;5091320;28;20443;-76
2022/10/19 10:40:02;;;;;;;0.60;0.50;;;16.40;99.90;;;;;;5091864;28;20411;-76
2022/10/19 10:42:30;;;;;;;0.50;0.30;;;16.80;99.90;;;;;;5092215;28;20450;-76
2022/10/19 10:44:58;;;;;;;0.50;0.40;;;17.30;99.90;;;;;;5091506;28;20526;-77
2022/10/19 10:47:27;;;;;;;2.20;1.03;;;18.00;99.90;;;;;;5091596;28;20439;-76
2022/10/19 10:49:57;;;;;;;0.50;0.40;;;18.20;99.90;;;;;;5090507;28;20467;-76
2022/10/19 10:52:26;;;;;;;0.50;0.30;;;18.10;99.90;;;;;;5091633;28;20434;-76
2022/10/19 10:55:17;;;;;;;0.60;0.40;;;18.20;99.90;;;;;;5091481;28;20431;-76
2022/10/19 10:57:46;;;;;;;0.50;0.30;;;18.40;99.90;;;;;;5091336;28;20423;-76
2022/10/19 11:00:16;;;;;;;0.50;0.30;;;18.80;99.90;;;;;;5091594;28;20439;-75
2022/10/19 11:02:47;;;;;;;0.50;0.40;;;19.20;99.90;;;;;;5091780;28;20431;-75
2022/10/19 11:05:19;;;;;;;0.50;0.30;;;19.70;99.90;;;;;;5091031;28;20457;-76
2022/10/19 11:07:49;;;;;;;0.50;0.40;;;19.70;99.90;;;;;;5091144;28;20423;-76
2022/10/19 11:10:26;;;;;;;0.60;0.60;;;19.90;98.40;;;;;;5091318;28;20475;-75
2022/10/19 11:13:03;;;;;;;0.50;0.30;;;20.00;97.70;;;;;;5091374;28;20427;-74
2022/10/19 11:15:36;;;;;;;0.60;0.50;;;20.40;98.20;;;;;;5091153;28;20459;-74
2022/10/19 11:18:16;;;;;;;0.60;0.40;;;20.80;96.30;;;;;;5091282;28;20423;-76
2022/10/19 11:20:49;;;;;;;0.50;0.30;;;20.40;96.50;;;;;;5091312;28;20415;-75
2022/10/19 11:23:25;;;;;;;0.50;0.30;;;20.00;97.30;;;;;;5090856;28;20444;-75
2022/10/19 11:26:09;;;;;;;0.50;0.30;;;20.10;97.20;;;;;;5093691;28;20987;-75
2022/10/19 11:28:54;;;;;;;0.50;0.30;;;19.90;98.10;;;;;;5095294;28;20416;-75
2022/10/19 11:31:30;;;;;;;2.40;0.40;;;20.00;97.80;;;;;;5094997;28;20465;-75
2022/10/19 11:34:03;;;;;;;0.60;0.40;;;19.90;98.90;;;;;;5094780;28;20442;-74
2022/10/19 11:36:42;;;;;;;0.50;0.30;;;20.20;98.10;;;;;;5094937;28;20451;-74
2022/10/19 11:39:41;;;;;;;0.50;0.30;;;20.00;96.30;;;;;;5094651;28;20415;-75
2022/10/19 11:42:16;;;;;;;1.57;0.73;;;20.20;97.80;;;;;;5094722;28;20733;-74
2022/10/19 11:44:54;;;;;;;0.50;0.30;;;19.90;96.80;;;;;;5094899;28;20437;-74
2022/10/19 11:47:36;;;;;;;0.50;0.40;;;19.50;96.00;;;;;;5094676;28;20511;-74
2022/10/19 11:50:22;;;;;;;0.73;0.73;;;19.20;98.40;;;;;;5094060;28;20479;-75
2022/10/19 11:52:56;;;;;;;0.50;0.30;;;19.00;99.90;;;;;;5094453;28;20439;-75
2022/10/19 11:55:36;;;;;;;11.00;0.73;;;18.90;99.90;;;;;;5094442;28;20461;-75
2022/10/19 11:58:25;;;;;;;0.50;0.30;;;18.70;99.90;;;;;;5094407;28;20446;-75
2022/10/19 12:00:59;;;;;;;0.50;0.50;;;18.50;99.90;;;;;;5094619;28;21096;-72
2022/10/19 12:03:55;;;;;;;0.50;0.40;;;18.50;99.90;;;;;;5094258;28;20441;-75
2022/10/19 12:06:27;;;;;;;0.50;0.30;;;18.40;99.90;;;;;;5094544;28;20458;-75
2022/10/19 12:09:18;;;;;;;1.23;1.13;;;18.20;99.90;;;;;;5094305;28;20423;-75
2022/10/19 12:12:08;;;;;;;0.50;0.30;;;18.00;99.90;;;;;;5094326;28;20808;-75
2022/10/19 12:14:41;;;;;;;0.50;0.40;;;18.00;99.90;;;;;;5094007;28;20422;-75
2022/10/19 12:17:14;;;;;;;0.50;0.30;;;17.90;99.90;;;;;;5094209;28;20486;-75
2022/10/19 12:19:47;;;;;;;4.23;0.70;;;17.80;99.90;;;;;;5094441;28;20438;-75
2022/10/19 12:22:18;;;;;;;0.50;0.40;;;17.70;99.90;;;;;;5094003;28;20445;-75
2022/10/19 12:24:45;;;;;;;0.50;0.30;;;17.70;99.90;;;;;;5093955;28;20811;-75
2022/10/19 12:27:14;;;;;;;0.50;0.33;;;17.70;99.90;;;;;;5095353;28;20435;-75
2022/10/19 12:29:47;;;;;;;0.50;0.30;;;17.70;99.90;;;;;;5094285;28;20471;-75
2022/10/19 12:32:19;;;;;;;0.53;0.37;;;17.60;99.90;;;;;;5094185;28;20931;-75
2022/10/19 12:34:52;;;;;;;0.70;0.60;;;17.60;99.90;;;;;;5094061;28;20792;-75
2022/10/19 12:37:26;;;;;;;0.50;0.40;;;17.60;99.90;;;;;;5093533;28;20893;-75
2022/10/19 12:40:00;;;;;;;0.50;0.40;;;17.50;99.90;;;;;;5094217;28;20419;-75
2022/10/19 12:42:31;;;;;;;0.50;0.40;;;17.50;99.90;;;;;;5094428;28;20430;-75
2022/10/19 12:45:25;;;;;;;0.50;0.40;;;17.60;99.90;;;;;;5093667;28;20808;-75
2022/10/19 12:48:21;;;;;;;0.50;0.30;;;17.60;99.90;;;;;;5093796;28;20428;-76
2022/10/19 12:51:13;;;;;;;0.60;0.60;;;17.60;99.90;;;;;;5093457;28;20491;-75
2022/10/19 12:53:45;;;;;;;0.50;0.40;;;17.70;99.90;;;;;;5074382;28;20435;-75
2022/10/19 12:56:19;;;;;;;0.50;0.40;;;18.20;99.90;;;;;;5093175;28;20538;-76
2022/10/19 12:58:51;;;;;;;0.50;0.30;;;18.70;99.90;;;;;;5093700;28;20443;-76
2022/10/19 13:01:26;;;;;;;0.50;0.40;;;19.60;99.90;;;;;;5093759;28;20427;-75
2022/10/19 13:04:07;;;;;;;0.50;0.40;;;20.40;99.90;;;;;;5092989;28;20431;-74
2022/10/19 13:06:36;;;;;;;0.50;0.30;;;20.80;95.50;;;;;;5094080;28;20540;-75
2022/10/19 13:09:06;;;;;;;0.50;0.30;;;20.80;93.90;;;;;;5093697;28;20511;-76
2022/10/19 13:11:34;;;;;;;0.50;0.30;;;21.10;92.20;;;;;;5093683;28;20470;-76